sensor_id;sensor_type;location;lat;lon;timestamp;pressure;altitude;pressure_sealevel;temperature
70123;BMP280;57489;37.404;24.920;2024-03-08T00:02:51;100129.53;;;18.84
70123;BMP280;57489;37.404;24.920;2024-03-08T00:07:53;100119.06;;;18.79
70123;BMP280;57489;37.404;24.920;2024-03-08T00:12:57;100121.84;;;18.82
70123;BMP280;57489;37.404;24.920;2024-03-08T00:17:59;100114.81;;;18.78
70123;BMP280;57489;37.404;24.920;2024-03-08T00:23:01;100116.84;;;18.72
70123;BMP280;57489;37.404;24.920;2024-03-08T00:28:05;100116.69;;;18.69
70123;BMP280;57489;37.404;24.920;2024-03-08T00:33:08;100117.16;;;18.71
70123;BMP280;57489;37.404;24.920;2024-03-08T00:38:10;100104.47;;;18.68
70123;BMP280;57489;37.404;24.920;2024-03-08T00:43:15;100115.75;;;18.65
70123;BMP280;57489;37.404;24.920;2024-03-08T00:48:17;100102.75;;;18.63
70123;BMP280;57489;37.404;24.920;2024-03-08T00:53:19;100104.63;;;18.63
70123;BMP280;57489;37.404;24.920;2024-03-08T00:58:23;100091.50;;;18.57
70123;BMP280;57489;37.404;24.920;2024-03-08T01:03:25;100088.84;;;18.57
70123;BMP280;57489;37.404;24.920;2024-03-08T01:08:27;100096.06;;;18.57
70123;BMP280;57489;37.404;24.920;2024-03-08T01:13:31;100090.53;;;18.53
70123;BMP280;57489;37.404;24.920;2024-03-08T01:18:33;100082.56;;;18.53
70123;BMP280;57489;37.404;24.920;2024-03-08T01:23:35;100079.63;;;18.55
70123;BMP280;57489;37.404;24.920;2024-03-08T01:28:39;100071.78;;;18.50
70123;BMP280;57489;37.404;24.920;2024-03-08T01:33:42;100073.22;;;18.47
70123;BMP280;57489;37.404;24.920;2024-03-08T01:38:44;100071.00;;;18.49
70123;BMP280;57489;37.404;24.920;2024-03-08T01:43:48;100072.88;;;18.49
70123;BMP280;57489;37.404;24.920;2024-03-08T01:48:51;100072.44;;;18.47
70123;BMP280;57489;37.404;24.920;2024-03-08T01:53:53;100068.97;;;18.46
70123;BMP280;57489;37.404;24.920;2024-03-08T01:58:59;100081.75;;;18.44
70123;BMP280;57489;37.404;24.920;2024-03-08T02:04:02;100087.06;;;18.44
70123;BMP280;57489;37.404;24.920;2024-03-08T02:09:07;100092.38;;;18.44
70123;BMP280;57489;37.404;24.920;2024-03-08T02:14:10;100099.56;;;18.44
70123;BMP280;57489;37.404;24.920;2024-03-08T02:19:12;100101.78;;;18.42
70123;BMP280;57489;37.404;24.920;2024-03-08T02:24:16;100106.31;;;18.41
70123;BMP280;57489;37.404;24.920;2024-03-08T02:29:18;100110.06;;;18.40
70123;BMP280;57489;37.404;24.920;2024-03-08T02:34:21;100098.47;;;18.36
70123;BMP280;57489;37.404;24.920;2024-03-08T02:39:25;100114.41;;;18.36
70123;BMP280;57489;37.404;24.920;2024-03-08T02:44:28;100116.00;;;18.37
70123;BMP280;57489;37.404;24.920;2024-03-08T02:49:30;100121.31;;;18.37
70123;BMP280;57489;37.404;24.920;2024-03-08T02:54:34;100123.47;;;18.35
70123;BMP280;57489;37.404;24.920;2024-03-08T02:59:37;100121.88;;;18.34
70123;BMP280;57489;37.404;24.920;2024-03-08T03:04:40;100115.34;;;18.31
70123;BMP280;57489;37.404;24.920;2024-03-08T03:09:45;100115.66;;;18.30
70123;BMP280;57489;37.404;24.920;2024-03-08T03:14:47;100118.78;;;18.32
70123;BMP280;57489;37.404;24.920;2024-03-08T03:19:49;100116.75;;;18.29
70123;BMP280;57489;37.404;24.920;2024-03-08T03:24:53;100130.50;;;18.31
70123;BMP280;57489;37.404;24.920;2024-03-08T03:29:58;100124.22;;;18.27
70123;BMP280;57489;37.404;24.920;2024-03-08T03:35:20;100132.19;;;18.27
70123;BMP280;57489;37.404;24.920;2024-03-08T03:40:24;100135.94;;;18.26
70123;BMP280;57489;37.404;24.920;2024-03-08T03:45:27;100137.50;;;18.27
70123;BMP280;57489;37.404;24.920;2024-03-08T03:50:29;100135.94;;;18.26
70123;BMP280;57489;37.404;24.920;2024-03-08T03:55:32;100132.03;;;18.23
70123;BMP280;57489;37.404;24.920;2024-03-08T04:00:34;100148.75;;;18.24
70123;BMP280;57489;37.404;24.920;2024-03-08T04:05:37;100143.25;;;18.20
70123;BMP280;57489;37.404;24.920;2024-03-08T04:10:41;100147.75;;;18.20
70123;BMP280;57489;37.404;24.920;2024-03-08T04:15:43;100152.00;;;18.21
70123;BMP280;57489;37.404;24.920;2024-03-08T04:20:45;100160.91;;;18.16
70123;BMP280;57489;37.404;24.920;2024-03-08T04:25:49;100159.66;;;18.14
70123;BMP280;57489;37.404;24.920;2024-03-08T04:30:52;100162.59;;;18.12
70123;BMP280;57489;37.404;24.920;2024-03-08T04:35:55;100165.56;;;18.11
70123;BMP280;57489;37.404;24.920;2024-03-08T04:41:00;100172.72;;;18.10
70123;BMP280;57489;37.404;24.920;2024-03-08T04:46:04;100173.34;;;18.07
70123;BMP280;57489;37.404;24.920;2024-03-08T04:51:06;100183.19;;;18.06
70123;BMP280;57489;37.404;24.920;2024-03-08T04:56:10;100189.00;;;18.09
70123;BMP280;57489;37.404;24.920;2024-03-08T05:01:12;100190.53;;;18.10
70123;BMP280;57489;37.404;24.920;2024-03-08T05:06:14;100195.22;;;18.13
70123;BMP280;57489;37.404;24.920;2024-03-08T05:11:18;100200.75;;;18.25
70123;BMP280;57489;37.404;24.920;2024-03-08T05:16:21;100198.34;;;18.37
70123;BMP280;57489;37.404;24.920;2024-03-08T05:21:26;100212.75;;;18.45
70123;BMP280;57489;37.404;24.920;2024-03-08T05:26:31;100205.00;;;18.57
70123;BMP280;57489;37.404;24.920;2024-03-08T05:31:41;100212.22;;;18.74
70123;BMP280;57489;37.404;24.920;2024-03-08T05:36:44;100221.00;;;18.83
70123;BMP280;57489;37.404;24.920;2024-03-08T05:41:48;100222.97;;;19.26
70123;BMP280;57489;37.404;24.920;2024-03-08T05:46:50;100222.66;;;19.62
70123;BMP280;57489;37.404;24.920;2024-03-08T05:51:53;100237.84;;;19.44
70123;BMP280;57489;37.404;24.920;2024-03-08T05:56:56;100250.38;;;19.35
70123;BMP280;57489;37.404;24.920;2024-03-08T06:01:58;100249.25;;;19.36
70123;BMP280;57489;37.404;24.920;2024-03-08T06:07:00;100251.16;;;19.44
70123;BMP280;57489;37.404;24.920;2024-03-08T06:12:05;100255.56;;;19.49
70123;BMP280;57489;37.404;24.920;2024-03-08T06:17:10;100255.03;;;19.55
70123;BMP280;57489;37.404;24.920;2024-03-08T06:22:12;100258.50;;;19.64
70123;BMP280;57489;37.404;24.920;2024-03-08T06:27:15;100258.19;;;19.75
70123;BMP280;57489;37.404;24.920;2024-03-08T06:32:18;100268.84;;;19.66
70123;BMP280;57489;37.404;24.920;2024-03-08T06:37:20;100281.53;;;19.52
70123;BMP280;57489;37.404;24.920;2024-03-08T06:42:25;100282.28;;;19.70
70123;BMP280;57489;37.404;24.920;2024-03-08T06:47:28;100277.25;;;19.68
70123;BMP280;57489;37.404;24.920;2024-03-08T06:52:30;100287.63;;;19.52
70123;BMP280;57489;37.404;24.920;2024-03-08T06:57:34;100277.13;;;19.64
70123;BMP280;57489;37.404;24.920;2024-03-08T07:02:38;100286.03;;;19.86
70123;BMP280;57489;37.404;24.920;2024-03-08T07:07:42;100291.19;;;20.00
70123;BMP280;57489;37.404;24.920;2024-03-08T07:12:46;100290.06;;;20.09
70123;BMP280;57489;37.404;24.920;2024-03-08T07:17:49;100307.28;;;20.21
70123;BMP280;57489;37.404;24.920;2024-03-08T07:22:53;100310.09;;;20.33
70123;BMP280;57489;37.404;24.920;2024-03-08T07:27:56;100321.09;;;20.23
70123;BMP280;57489;37.404;24.920;2024-03-08T07:32:58;100324.28;;;19.90
70123;BMP280;57489;37.404;24.920;2024-03-08T07:43:07;100302.66;;;20.00
70123;BMP280;57489;37.404;24.920;2024-03-08T07:48:09;100317.38;;;20.15
70123;BMP280;57489;37.404;24.920;2024-03-08T07:53:11;100313.94;;;19.80
70123;BMP280;57489;37.404;24.920;2024-03-08T07:58:15;100325.19;;;19.59
70123;BMP280;57489;37.404;24.920;2024-03-08T08:03:18;100322.38;;;19.47
70123;BMP280;57489;37.404;24.920;2024-03-08T08:08:21;100326.09;;;19.46
70123;BMP280;57489;37.404;24.920;2024-03-08T08:13:25;100332.75;;;19.83
70123;BMP280;57489;37.404;24.920;2024-03-08T08:18:28;100332.72;;;19.75
70123;BMP280;57489;37.404;24.920;2024-03-08T08:23:30;100329.25;;;20.17
70123;BMP280;57489;37.404;24.920;2024-03-08T08:28:34;100332.50;;;20.40
70123;BMP280;57489;37.404;24.920;2024-03-08T08:33:36;100325.44;;;20.53
70123;BMP280;57489;37.404;24.920;2024-03-08T08:38:38;100338.94;;;20.31
70123;BMP280;57489;37.404;24.920;2024-03-08T08:43:42;100346.38;;;20.63
70123;BMP280;57489;37.404;24.920;2024-03-08T08:48:44;100345.88;;;20.70
70123;BMP280;57489;37.404;24.920;2024-03-08T08:53:47;100347.16;;;20.73
70123;BMP280;57489;37.404;24.920;2024-03-08T08:58:51;100362.03;;;20.82
70123;BMP280;57489;37.404;24.920;2024-03-08T09:03:53;100349.47;;;20.83
70123;BMP280;57489;37.404;24.920;2024-03-08T09:08:56;100360.91;;;20.92
70123;BMP280;57489;37.404;24.920;2024-03-08T09:13:59;100363.81;;;20.99
70123;BMP280;57489;37.404;24.920;2024-03-08T09:19:02;100368.81;;;20.62
70123;BMP280;57489;37.404;24.920;2024-03-08T09:24:06;100380.41;;;20.75
70123;BMP280;57489;37.404;24.920;2024-03-08T09:29:10;100375.13;;;20.96
70123;BMP280;57489;37.404;24.920;2024-03-08T09:34:12;100379.84;;;20.43
70123;BMP280;57489;37.404;24.920;2024-03-08T09:39:14;100376.06;;;20.53
70123;BMP280;57489;37.404;24.920;2024-03-08T09:44:19;100369.22;;;20.82
70123;BMP280;57489;37.404;24.920;2024-03-08T09:49:21;100388.16;;;20.25
70123;BMP280;57489;37.404;24.920;2024-03-08T09:54:23;100380.94;;;20.51
70123;BMP280;57489;37.404;24.920;2024-03-08T09:59:28;100384.06;;;20.53
70123;BMP280;57489;37.404;24.920;2024-03-08T10:04:47;100385.88;;;20.79
70123;BMP280;57489;37.404;24.920;2024-03-08T10:09:52;100394.41;;;20.46
70123;BMP280;57489;37.404;24.920;2024-03-08T10:14:58;100397.94;;;20.76
70123;BMP280;57489;37.404;24.920;2024-03-08T10:20:00;100395.28;;;20.67
70123;BMP280;57489;37.404;24.920;2024-03-08T10:25:05;100397.84;;;20.55
70123;BMP280;57489;37.404;24.920;2024-03-08T10:30:12;100397.47;;;20.83
70123;BMP280;57489;37.404;24.920;2024-03-08T10:35:16;100405.59;;;20.95
70123;BMP280;57489;37.404;24.920;2024-03-08T10:40:19;100408.16;;;20.83
70123;BMP280;57489;37.404;24.920;2024-03-08T10:45:34;100406.25;;;20.92
70123;BMP280;57489;37.404;24.920;2024-03-08T10:50:38;100403.59;;;20.75
70123;BMP280;57489;37.404;24.920;2024-03-08T10:55:40;100409.22;;;20.90
70123;BMP280;57489;37.404;24.920;2024-03-08T11:00:44;100406.94;;;21.01
70123;BMP280;57489;37.404;24.920;2024-03-08T11:05:46;100403.03;;;21.07
70123;BMP280;57489;37.404;24.920;2024-03-08T11:10:49;100406.78;;;21.06
70123;BMP280;57489;37.404;24.920;2024-03-08T11:15:55;100404.00;;;20.94
70123;BMP280;57489;37.404;24.920;2024-03-08T11:20:58;100402.94;;;20.86
70123;BMP280;57489;37.404;24.920;2024-03-08T11:26:00;100407.88;;;20.58
70123;BMP280;57489;37.404;24.920;2024-03-08T11:31:25;100410.31;;;20.81
70123;BMP280;57489;37.404;24.920;2024-03-08T11:36:29;100396.88;;;20.68
70123;BMP280;57489;37.404;24.920;2024-03-08T11:41:32;100392.47;;;20.73
70123;BMP280;57489;37.404;24.920;2024-03-08T11:46:36;100391.66;;;20.81
70123;BMP280;57489;37.404;24.920;2024-03-08T11:51:41;100393.56;;;20.80
70123;BMP280;57489;37.404;24.920;2024-03-08T11:56:44;100397.47;;;20.83
70123;BMP280;57489;37.404;24.920;2024-03-08T12:02:01;100383.22;;;20.79
70123;BMP280;57489;37.404;24.920;2024-03-08T12:07:03;100385.88;;;20.79
70123;BMP280;57489;37.404;24.920;2024-03-08T12:12:09;100389.34;;;20.71
70123;BMP280;57489;37.404;24.920;2024-03-08T12:17:14;100390.94;;;20.63
70123;BMP280;57489;37.404;24.920;2024-03-08T12:22:16;100400.03;;;20.62
70123;BMP280;57489;37.404;24.920;2024-03-08T12:27:18;100394.06;;;20.65
70123;BMP280;57489;37.404;24.920;2024-03-08T12:32:23;100387.78;;;20.69
70123;BMP280;57489;37.404;24.920;2024-03-08T12:37:29;100396.72;;;20.65
70123;BMP280;57489;37.404;24.920;2024-03-08T12:42:33;100399.09;;;20.66
70123;BMP280;57489;37.404;24.920;2024-03-08T12:47:37;100389.66;;;20.60
70123;BMP280;57489;37.404;24.920;2024-03-08T12:52:39;100398.59;;;20.64
70123;BMP280;57489;37.404;24.920;2024-03-08T12:57:42;100396.25;;;20.63
70123;BMP280;57489;37.404;24.920;2024-03-08T13:02:46;100387.31;;;20.59
70123;BMP280;57489;37.404;24.920;2024-03-08T13:07:48;100382.50;;;20.52
70123;BMP280;57489;37.404;24.920;2024-03-08T13:12:51;100383.75;;;20.46
70123;BMP280;57489;37.404;24.920;2024-03-08T13:17:55;100387.19;;;20.38
70123;BMP280;57489;37.404;24.920;2024-03-08T13:23:00;100396.16;;;20.25
70123;BMP280;57489;37.404;24.920;2024-03-08T13:28:03;100396.66;;;20.27
70123;BMP280;57489;37.404;24.920;2024-03-08T13:33:08;100390.69;;;20.30
70123;BMP280;57489;37.404;24.920;2024-03-08T13:38:10;100395.03;;;20.43
70123;BMP280;57489;37.404;24.920;2024-03-08T13:43:15;100395.38;;;20.24
70123;BMP280;57489;37.404;24.920;2024-03-08T13:48:19;100398.06;;;20.07
70123;BMP280;57489;37.404;24.920;2024-03-08T13:53:22;100402.28;;;19.99
70123;BMP280;57489;37.404;24.920;2024-03-08T13:58:25;100400.25;;;19.96
70123;BMP280;57489;37.404;24.920;2024-03-08T14:03:29;100405.25;;;19.89
70123;BMP280;57489;37.404;24.920;2024-03-08T14:08:31;100403.22;;;19.86
70123;BMP280;57489;37.404;24.920;2024-03-08T14:13:33;100391.94;;;19.89
70123;BMP280;57489;37.404;24.920;2024-03-08T14:18:39;100395.38;;;19.81
70123;BMP280;57489;37.404;24.920;2024-03-08T14:23:41;100401.31;;;19.78
70123;BMP280;57489;37.404;24.920;2024-03-08T14:28:44;100396.66;;;19.83
70123;BMP280;57489;37.404;24.920;2024-03-08T14:33:48;100391.78;;;19.85
70123;BMP280;57489;37.404;24.920;2024-03-08T14:38:51;100397.56;;;19.79
70123;BMP280;57489;37.404;24.920;2024-03-08T14:43:53;100406.50;;;19.74
70123;BMP280;57489;37.404;24.920;2024-03-08T14:48:59;100406.00;;;19.63
70123;BMP280;57489;37.404;24.920;2024-03-08T14:54:01;100412.88;;;19.64
70123;BMP280;57489;37.404;24.920;2024-03-08T14:59:07;100424.16;;;19.61
70123;BMP280;57489;37.404;24.920;2024-03-08T15:04:11;100429.31;;;19.58
70123;BMP280;57489;37.404;24.920;2024-03-08T15:09:13;100433.22;;;19.60
70123;BMP280;57489;37.404;24.920;2024-03-08T15:14:17;100449.19;;;19.60
70123;BMP280;57489;37.404;24.920;2024-03-08T15:19:22;100448.50;;;19.46
70123;BMP280;57489;37.404;24.920;2024-03-08T15:24:25;100457.00;;;19.48
70123;BMP280;57489;37.404;24.920;2024-03-08T15:29:29;100452.47;;;19.49
70123;BMP280;57489;37.404;24.920;2024-03-08T15:34:33;100452.78;;;19.56
70123;BMP280;57489;37.404;24.920;2024-03-08T15:39:38;100467.19;;;19.55
70123;BMP280;57489;37.404;24.920;2024-03-08T15:44:41;100471.91;;;19.49
70123;BMP280;57489;37.404;24.920;2024-03-08T15:49:46;100471.22;;;19.44
70123;BMP280;57489;37.404;24.920;2024-03-08T16:06:55;100484.91;;;19.28
70123;BMP280;57489;37.404;24.920;2024-03-08T16:11:58;100490.09;;;19.25
70123;BMP280;57489;37.404;24.920;2024-03-08T16:17:00;100481.81;;;19.75
70123;BMP280;57489;37.404;24.920;2024-03-08T16:22:04;100489.13;;;20.17
70123;BMP280;57489;37.404;24.920;2024-03-08T16:27:06;100489.25;;;20.21
70123;BMP280;57489;37.404;24.920;2024-03-08T16:32:08;100489.44;;;20.25
70123;BMP280;57489;37.404;24.920;2024-03-08T16:37:12;100486.63;;;20.30
70123;BMP280;57489;37.404;24.920;2024-03-08T16:42:14;100489.28;;;20.30
70123;BMP280;57489;37.404;24.920;2024-03-08T16:47:17;100493.69;;;20.34
70123;BMP280;57489;37.404;24.920;2024-03-08T16:52:20;100498.56;;;20.41
70123;BMP280;57489;37.404;24.920;2024-03-08T16:57:23;100508.56;;;20.44
70123;BMP280;57489;37.404;24.920;2024-03-08T17:02:26;100506.06;;;20.39
70123;BMP280;57489;37.404;24.920;2024-03-08T17:07:29;100507.91;;;20.12
70123;BMP280;57489;37.404;24.920;2024-03-08T17:12:37;100511.81;;;20.06
70123;BMP280;57489;37.404;24.920;2024-03-08T17:17:39;100516.66;;;20.04
70123;BMP280;57489;37.404;24.920;2024-03-08T17:22:44;100518.06;;;20.02
70123;BMP280;57489;37.404;24.920;2024-03-08T17:27:49;100518.53;;;19.95
70123;BMP280;57489;37.404;24.920;2024-03-08T17:32:54;100526.09;;;20.10
70123;BMP280;57489;37.404;24.920;2024-03-08T17:37:58;100534.88;;;20.02
70123;BMP280;57489;37.404;24.920;2024-03-08T17:43:01;100541.56;;;20.00
70123;BMP280;57489;37.404;24.920;2024-03-08T17:48:08;100555.81;;;19.95
70123;BMP280;57489;37.404;24.920;2024-03-08T17:53:14;100554.59;;;20.01
70123;BMP280;57489;37.404;24.920;2024-03-08T17:58:16;100556.19;;;20.02
70123;BMP280;57489;37.404;24.920;2024-03-08T18:03:18;100561.94;;;20.04
70123;BMP280;57489;37.404;24.920;2024-03-08T18:08:22;100565.09;;;20.06
70123;BMP280;57489;37.404;24.920;2024-03-08T18:13:24;100554.28;;;20.11
70123;BMP280;57489;37.404;24.920;2024-03-08T18:18:26;100563.41;;;20.10
70123;BMP280;57489;37.404;24.920;2024-03-08T18:23:31;100562.13;;;20.16
70123;BMP280;57489;37.404;24.920;2024-03-08T18:28:33;100573.22;;;20.01
70123;BMP280;57489;37.404;24.920;2024-03-08T18:33:38;100562.63;;;20.10
70123;BMP280;57489;37.404;24.920;2024-03-08T18:38:46;100566.03;;;20.02
70123;BMP280;57489;37.404;24.920;2024-03-08T18:43:49;100555.25;;;20.15
70123;BMP280;57489;37.404;24.920;2024-03-08T18:48:51;100568.31;;;20.34
70123;BMP280;57489;37.404;24.920;2024-03-08T18:53:55;100567.97;;;20.36
70123;BMP280;57489;37.404;24.920;2024-03-08T18:58:57;100575.19;;;20.35
70123;BMP280;57489;37.404;24.920;2024-03-08T19:03:59;100573.78;;;20.38
70123;BMP280;57489;37.404;24.920;2024-03-08T19:09:03;100576.59;;;20.50
70123;BMP280;57489;37.404;24.920;2024-03-08T19:14:10;100572.22;;;20.54
70123;BMP280;57489;37.404;24.920;2024-03-08T19:19:12;100585.75;;;20.66
70123;BMP280;57489;37.404;24.920;2024-03-08T19:24:16;100581.66;;;20.78
70123;BMP280;57489;37.404;24.920;2024-03-08T19:29:18;100584.97;;;20.83
70123;BMP280;57489;37.404;24.920;2024-03-08T19:34:27;100584.19;;;20.83
70123;BMP280;57489;37.404;24.920;2024-03-08T19:39:30;100584.63;;;20.85
70123;BMP280;57489;37.404;24.920;2024-03-08T19:44:32;100588.25;;;20.98
70123;BMP280;57489;37.404;24.920;2024-03-08T19:49:35;100594.50;;;20.93
70123;BMP280;57489;37.404;24.920;2024-03-08T19:54:38;100593.41;;;21.03
70123;BMP280;57489;37.404;24.920;2024-03-08T19:59:40;100599.38;;;21.08
70123;BMP280;57489;37.404;24.920;2024-03-08T20:04:45;100598.59;;;20.99
70123;BMP280;57489;37.404;24.920;2024-03-08T20:09:49;100597.16;;;20.84
70123;BMP280;57489;37.404;24.920;2024-03-08T20:14:51;100600.31;;;20.52
70123;BMP280;57489;37.404;24.920;2024-03-08T20:19:53;100610.16;;;20.34
70123;BMP280;57489;37.404;24.920;2024-03-08T20:24:57;100598.66;;;20.16
70123;BMP280;57489;37.404;24.920;2024-03-08T20:30:01;100602.41;;;20.06
70123;BMP280;57489;37.404;24.920;2024-03-08T20:35:03;100610.38;;;20.06
70123;BMP280;57489;37.404;24.920;2024-03-08T20:40:09;100615.09;;;20.09
70123;BMP280;57489;37.404;24.920;2024-03-08T20:45:12;100615.53;;;20.03
70123;BMP280;57489;37.404;24.920;2024-03-08T20:50:15;100616.28;;;19.95
70123;BMP280;57489;37.404;24.920;2024-03-08T20:55:20;100623.41;;;20.16
70123;BMP280;57489;37.404;24.920;2024-03-08T21:00:24;100607.09;;;20.01
70123;BMP280;57489;37.404;24.920;2024-03-08T21:05:43;100613.78;;;19.98
70123;BMP280;57489;37.404;24.920;2024-03-08T21:10:48;100610.78;;;19.91
70123;BMP280;57489;37.404;24.920;2024-03-08T21:15:52;100618.44;;;19.84
70123;BMP280;57489;37.404;24.920;2024-03-08T21:20:54;100623.13;;;19.78
70123;BMP280;57489;37.404;24.920;2024-03-08T21:25:58;100627.19;;;19.76
70123;BMP280;57489;37.404;24.920;2024-03-08T21:31:02;100626.22;;;19.72
70123;BMP280;57489;37.404;24.920;2024-03-08T21:36:07;100631.56;;;19.72
70123;BMP280;57489;37.404;24.920;2024-03-08T21:41:11;100622.81;;;19.80
70123;BMP280;57489;37.404;24.920;2024-03-08T21:46:13;100623.78;;;19.84
70123;BMP280;57489;37.404;24.920;2024-03-08T21:51:16;100626.81;;;19.69
70123;BMP280;57489;37.404;24.920;2024-03-08T21:56:19;100635.19;;;19.76
70123;BMP280;57489;37.404;24.920;2024-03-08T22:01:21;100635.53;;;19.60
70123;BMP280;57489;37.404;24.920;2024-03-08T22:06:24;100632.94;;;19.69
70123;BMP280;57489;37.404;24.920;2024-03-08T22:11:32;100631.34;;;19.68
70123;BMP280;57489;37.404;24.920;2024-03-08T22:16:34;100632.41;;;19.58
70123;BMP280;57489;37.404;24.920;2024-03-08T22:21:39;100638.44;;;19.28
70123;BMP280;57489;37.404;24.920;2024-03-08T22:26:43;100642.03;;;19.09
70123;BMP280;57489;37.404;24.920;2024-03-08T22:31:45;100646.06;;;18.98
70123;BMP280;57489;37.404;24.920;2024-03-08T22:36:49;100650.50;;;18.89
70123;BMP280;57489;37.404;24.920;2024-03-08T22:41:54;100648.06;;;18.79
70123;BMP280;57489;37.404;24.920;2024-03-08T22:46:56;100647.34;;;18.73
70123;BMP280;57489;37.404;24.920;2024-03-08T22:51:58;100648.84;;;18.66
70123;BMP280;57489;37.404;24.920;2024-03-08T22:57:02;100658.00;;;18.59
70123;BMP280;57489;37.404;24.920;2024-03-08T23:02:08;100662.94;;;18.52
70123;BMP280;57489;37.404;24.920;2024-03-08T23:07:11;100651.31;;;18.48
70123;BMP280;57489;37.404;24.920;2024-03-08T23:12:15;100648.47;;;18.45
70123;BMP280;57489;37.404;24.920;2024-03-08T23:17:17;100659.41;;;18.43
70123;BMP280;57489;37.404;24.920;2024-03-08T23:22:19;100662.16;;;18.38
70123;BMP280;57489;37.404;24.920;2024-03-08T23:27:23;100656.84;;;18.38
70123;BMP280;57489;37.404;24.920;2024-03-08T23:32:25;100661.66;;;18.36
70123;BMP280;57489;37.404;24.920;2024-03-08T23:37:28;100664.56;;;18.34
70123;BMP280;57489;37.404;24.920;2024-03-08T23:42:32;100653.16;;;18.34
70123;BMP280;57489;37.404;24.920;2024-03-08T23:47:34;100644.22;;;18.30
70123;BMP280;57489;37.404;24.920;2024-03-08T23:52:36;100642.97;;;18.27
70123;BMP280;57489;37.404;24.920;2024-03-08T23:57:44;100639.00;;;18.25
